createdAt,value
2019-01-11T00:01:25.705Z,8.67
2019-01-11T00:03:57.291Z,7.33
2019-01-11T00:06:29.058Z,8.80
2019-01-11T00:09:00.739Z,9.57
2019-01-11T00:11:32.265Z,8.90
2019-01-11T00:14:03.875Z,9.07
2019-01-11T00:16:35.625Z,8.80
2019-01-11T00:19:07.538Z,8.47
2019-01-11T00:21:39.249Z,7.43
2019-01-11T00:24:11.294Z,7.93
2019-01-11T00:26:42.954Z,7.93
2019-01-11T00:29:14.577Z,8.30
2019-01-11T00:31:46.339Z,7.93
2019-01-11T00:34:17.936Z,7.57
2019-01-11T00:36:49.577Z,8.60
2019-01-11T00:39:21.211Z,7.83
2019-01-11T00:41:52.957Z,8.60
2019-01-11T00:44:24.630Z,7.83
2019-01-11T00:46:56.277Z,7.67
2019-01-11T00:49:27.872Z,7.97
2019-01-11T00:51:59.522Z,7.77
2019-01-11T00:54:31.158Z,7.47
2019-01-11T00:57:02.664Z,7.97
2019-01-11T00:59:34.334Z,6.53
2019-01-11T01:02:06.225Z,7.30
2019-01-11T01:04:37.992Z,6.27
2019-01-11T01:07:09.802Z,6.23
2019-01-11T01:09:41.349Z,7.03
2019-01-11T01:12:13.065Z,7.07
2019-01-11T01:14:44.629Z,6.50
2019-01-11T01:17:16.107Z,7.37
2019-01-11T01:19:48.629Z,6.67
2019-01-11T01:22:21.467Z,7.53
2019-01-11T01:24:54.757Z,7.40
2019-01-11T01:27:26.350Z,7.13
2019-01-11T01:29:57.864Z,6.90
2019-01-11T01:32:29.524Z,8.63
2019-01-11T01:35:01.210Z,7.87
2019-01-11T01:37:32.908Z,7.70
2019-01-11T01:40:05.146Z,8.73
2019-01-11T01:42:36.807Z,9.07
2019-01-11T01:45:10.326Z,8.57
2019-01-11T01:47:42.097Z,9.50
2019-01-11T01:50:14.095Z,9.00
2019-01-11T01:52:45.791Z,9.40
2019-01-11T01:55:17.687Z,9.60
2019-01-11T01:57:49.324Z,8.73
2019-01-11T02:00:21.251Z,9.23
2019-01-11T02:02:52.958Z,10.07
2019-01-11T02:05:24.505Z,10.10
2019-01-11T02:07:56.119Z,10.70
2019-01-11T02:10:27.530Z,9.97
2019-01-11T02:13:00.185Z,10.53
2019-01-11T02:15:33.077Z,10.17
2019-01-11T02:18:04.840Z,11.77
2019-01-11T02:20:36.578Z,11.70
2019-01-11T02:23:08.160Z,10.63
2019-01-11T02:25:46.172Z,11.40
2019-01-11T02:28:15.586Z,12.37
2019-01-11T02:30:47.221Z,12.60
2019-01-11T02:33:24.867Z,11.17
2019-01-11T02:35:51.872Z,10.97
2019-01-11T02:38:23.572Z,11.87
2019-01-11T02:40:55.283Z,12.63
2019-01-11T02:43:26.825Z,12.30
2019-01-11T02:45:58.362Z,12.17
2019-01-11T02:48:30.055Z,11.50
2019-01-11T02:51:01.765Z,12.43
2019-01-11T02:53:33.317Z,11.40
2019-01-11T02:56:05.013Z,11.70
2019-01-11T02:58:36.682Z,11.87
2019-01-11T03:01:08.234Z,10.70
2019-01-11T03:03:39.999Z,11.70
2019-01-11T03:06:11.654Z,12.07
2019-01-11T03:08:43.200Z,12.70
2019-01-11T03:11:14.803Z,13.07
2019-01-11T03:13:46.474Z,13.23
2019-01-11T03:16:17.932Z,12.17
2019-01-11T03:18:49.703Z,12.50
2019-01-11T03:21:21.398Z,12.63
2019-01-11T03:23:52.907Z,12.30
2019-01-11T03:26:27.435Z,12.40
2019-01-11T03:28:59.052Z,11.97
2019-01-11T03:31:35.695Z,11.83
2019-01-11T03:34:08.328Z,12.67
2019-01-11T03:36:39.845Z,12.47
2019-01-11T03:39:11.501Z,12.00
2019-01-11T03:42:06.884Z,10.90
2019-01-11T03:44:38.416Z,11.30
2019-01-11T03:47:10.074Z,11.83
2019-01-11T03:49:41.505Z,11.67
2019-01-11T03:52:13.075Z,11.67
2019-01-11T03:54:44.629Z,11.53
2019-01-11T03:57:16.291Z,12.23
2019-01-11T03:59:47.893Z,12.97
2019-01-11T04:02:19.426Z,11.90
2019-01-11T04:04:51.083Z,11.87
2019-01-11T04:07:22.600Z,12.47
2019-01-11T04:09:54.266Z,11.50
2019-01-11T04:12:25.884Z,11.17
2019-01-11T04:14:57.554Z,11.67
2019-01-11T04:17:29.157Z,11.50
2019-01-11T04:20:02.197Z,11.57
2019-01-11T04:22:36.566Z,11.73
2019-01-11T04:25:10.327Z,12.53
2019-01-11T04:27:43.350Z,12.33
2019-01-11T04:30:19.825Z,13.50
2019-01-11T04:32:51.642Z,13.47
2019-01-11T04:35:23.231Z,13.63
2019-01-11T04:37:55.069Z,12.77
2019-01-11T04:40:30.442Z,12.57
2019-01-11T04:42:59.733Z,13.90
2019-01-11T04:45:31.283Z,12.57
2019-01-11T04:48:02.867Z,12.63
2019-01-11T04:50:34.507Z,13.93
2019-01-11T04:53:06.215Z,12.90
2019-01-11T04:55:37.727Z,11.80
2019-01-11T04:58:09.367Z,13.07
2019-01-11T05:00:40.937Z,13.83
2019-01-11T05:03:12.674Z,14.03
2019-01-11T05:05:44.154Z,14.83
2019-01-11T05:08:18.442Z,13.33
2019-01-11T05:10:50.043Z,13.23
2019-01-11T05:13:37.615Z,14.60
2019-01-11T05:16:09.331Z,14.33
2019-01-11T05:18:41.141Z,14.03
2019-01-11T05:21:12.666Z,14.67
2019-01-11T05:23:45.765Z,15.27
2019-01-11T05:26:17.280Z,14.70
2019-01-11T05:28:49.530Z,13.63
2019-01-11T05:31:21.200Z,15.43
2019-01-11T05:33:55.777Z,14.90
2019-01-11T05:36:27.386Z,16.37
2019-01-11T05:38:58.856Z,15.70
2019-01-11T05:41:32.315Z,16.07
2019-01-11T05:44:05.277Z,15.80
2019-01-11T05:46:36.909Z,16.97
2019-01-11T05:49:11.444Z,17.00
2019-01-11T05:51:44.280Z,15.57
2019-01-11T05:54:15.932Z,15.63
2019-01-11T05:56:47.510Z,17.67
2019-01-11T05:59:19.200Z,17.00
2019-01-11T06:01:50.861Z,15.07
2019-01-11T06:04:44.427Z,15.83
2019-01-11T06:07:25.180Z,16.47
2019-01-11T06:09:59.135Z,16.27
2019-01-11T06:12:30.736Z,18.10
2019-01-11T06:15:02.360Z,17.33
2019-01-11T06:17:33.948Z,17.57
2019-01-11T06:20:08.046Z,16.87
2019-01-11T06:22:39.645Z,19.00
2019-01-11T06:25:11.183Z,17.30
2019-01-11T06:27:42.727Z,19.43
2019-01-11T06:30:16.223Z,17.23
2019-01-11T06:32:48.210Z,19.17
2019-01-11T06:35:19.878Z,19.03
2019-01-11T06:37:51.502Z,17.97
2019-01-11T06:40:24.627Z,17.37
2019-01-11T06:42:56.273Z,18.20
2019-01-11T06:45:27.757Z,18.13
2019-01-11T06:47:59.475Z,19.23
2019-01-11T06:50:36.364Z,17.77
2019-01-11T06:53:05.197Z,18.03
2019-01-11T06:55:36.849Z,18.67
2019-01-11T06:58:09.346Z,18.27
2019-01-11T07:00:41.039Z,19.23
2019-01-11T07:03:12.729Z,19.23
2019-01-11T07:05:44.311Z,19.97
2019-01-11T07:08:15.919Z,19.90
2019-01-11T07:10:47.608Z,19.13
2019-01-11T07:13:19.239Z,20.17
2019-01-11T07:15:50.782Z,20.23
2019-01-11T07:18:22.417Z,22.47
2019-01-11T07:20:53.940Z,20.47
2019-01-11T07:23:25.582Z,20.13
2019-01-11T07:25:57.240Z,21.33
2019-01-11T07:28:28.777Z,21.20
2019-01-11T07:31:12.299Z,20.93
2019-01-11T07:33:43.983Z,20.83
2019-01-11T07:36:32.893Z,19.60
2019-01-11T07:39:11.921Z,20.47
2019-01-11T07:41:43.620Z,20.90
2019-01-11T07:44:15.252Z,20.03
2019-01-11T07:46:46.859Z,21.73
2019-01-11T07:49:23.157Z,22.80
2019-01-11T07:51:51.953Z,19.90
2019-01-11T07:54:23.671Z,21.60
2019-01-11T07:56:55.092Z,22.33
2019-01-11T07:59:26.679Z,20.87
2019-01-11T08:01:58.443Z,22.07
2019-01-11T08:04:30.130Z,22.23
2019-01-11T08:07:01.783Z,21.47
2019-01-11T08:09:33.486Z,21.77
2019-01-11T08:12:04.958Z,21.40
2019-01-11T08:14:36.589Z,22.27
2019-01-11T08:17:08.355Z,21.00
2019-01-11T08:19:40.058Z,22.10
2019-01-11T08:22:27.468Z,20.73
2019-01-11T08:25:03.417Z,22.10
2019-01-11T08:27:35.007Z,22.67
2019-01-11T08:30:09.355Z,22.73
2019-01-11T08:32:42.579Z,22.63
2019-01-11T08:35:14.726Z,21.47
2019-01-11T08:37:46.966Z,21.83
2019-01-11T08:40:18.709Z,21.43
2019-01-11T08:42:50.202Z,22.30
2019-01-11T08:45:21.809Z,21.87
2019-01-11T08:47:53.370Z,21.97
2019-01-11T08:50:25.059Z,21.27
2019-01-11T08:52:57.485Z,22.13
2019-01-11T08:55:29.147Z,22.13
2019-01-11T08:58:00.857Z,21.90
2019-01-11T09:00:32.531Z,23.27
2019-01-11T09:03:04.121Z,22.87
2019-01-11T09:05:35.620Z,23.83
2019-01-11T09:08:07.277Z,24.90
2019-01-11T09:10:39.676Z,24.67
2019-01-11T09:13:12.647Z,28.30
2019-01-11T09:15:44.214Z,34.70
2019-01-11T09:18:17.638Z,28.63
2019-01-11T09:20:49.060Z,25.20
2019-01-11T09:23:20.582Z,25.93
2019-01-11T09:25:52.231Z,25.40
2019-01-11T09:28:23.880Z,25.33
2019-01-11T09:30:55.475Z,24.43
2019-01-11T09:33:28.012Z,24.83
2019-01-11T09:35:59.684Z,25.20
2019-01-11T09:38:31.349Z,23.87
2019-01-11T09:41:02.873Z,25.67
2019-01-11T09:43:34.459Z,25.23
2019-01-11T09:46:06.418Z,25.87
2019-01-11T09:48:38.065Z,24.50
2019-01-11T09:51:15.545Z,24.23
2019-01-11T09:53:42.757Z,23.47
2019-01-11T09:56:14.390Z,24.13
2019-01-11T09:58:45.926Z,25.87
2019-01-11T10:01:17.418Z,25.60
2019-01-11T10:03:49.018Z,24.77
2019-01-11T10:06:20.522Z,27.33
2019-01-11T10:08:52.230Z,25.43
2019-01-11T10:11:23.808Z,24.73
2019-01-11T10:13:55.495Z,27.30
2019-01-11T10:16:27.053Z,25.93
2019-01-11T10:18:58.353Z,25.37
2019-01-11T10:21:29.958Z,26.17
2019-01-11T10:24:01.497Z,26.70
2019-01-11T10:26:33.169Z,26.77
2019-01-11T10:29:04.978Z,26.97
2019-01-11T10:31:36.508Z,26.27
2019-01-11T10:34:08.933Z,25.27
2019-01-11T10:36:40.629Z,26.30
2019-01-11T10:39:12.283Z,24.50
2019-01-11T10:41:43.998Z,29.30
2019-01-11T10:44:15.702Z,31.43
2019-01-11T10:46:49.120Z,29.20
2019-01-11T10:49:20.233Z,25.07
2019-01-11T10:51:51.871Z,25.17
2019-01-11T10:54:37.369Z,26.97
2019-01-11T10:57:08.773Z,26.50
2019-01-11T10:59:40.334Z,33.33
2019-01-11T11:02:12.905Z,26.77
2019-01-11T11:04:44.566Z,25.87
2019-01-11T11:07:16.090Z,25.80
2019-01-11T11:09:47.680Z,26.00
2019-01-11T11:12:19.288Z,32.20
2019-01-11T11:14:50.812Z,24.53
2019-01-11T11:17:22.449Z,30.37
2019-01-11T11:19:54.087Z,24.63
2019-01-11T11:22:25.669Z,21.87
2019-01-11T11:24:57.161Z,25.00
2019-01-11T11:27:29.180Z,23.17
2019-01-11T11:30:00.799Z,25.83
2019-01-11T11:33:03.422Z,21.97
2019-01-11T11:35:36.104Z,23.17
2019-01-11T11:38:07.637Z,23.30
2019-01-11T11:40:39.565Z,20.73
2019-01-11T11:43:11.152Z,24.20
2019-01-11T11:45:42.926Z,22.27
2019-01-11T11:48:14.396Z,23.17
2019-01-11T11:50:46.102Z,20.37
2019-01-11T11:53:17.631Z,20.40
2019-01-11T11:55:49.075Z,20.30
2019-01-11T11:58:20.614Z,18.93
2019-01-11T12:00:52.431Z,21.23
2019-01-11T12:03:24.015Z,19.90
2019-01-11T12:05:56.599Z,19.27
2019-01-11T12:08:28.422Z,21.03
2019-01-11T12:11:00.128Z,20.57
2019-01-11T12:13:34.588Z,18.80
2019-01-11T12:16:04.885Z,19.90
2019-01-11T12:18:36.557Z,18.93
2019-01-11T12:21:08.274Z,18.70
2019-01-11T12:23:39.962Z,18.83
2019-01-11T12:26:11.822Z,17.50
2019-01-11T12:28:43.382Z,17.90
2019-01-11T12:31:15.024Z,14.87
2019-01-11T12:33:46.598Z,16.40
2019-01-11T12:36:19.170Z,16.60
2019-01-11T12:38:50.707Z,16.80
2019-01-11T12:41:22.354Z,16.33
2019-01-11T12:43:53.926Z,14.93
2019-01-11T12:46:25.495Z,14.67
2019-01-11T12:48:57.527Z,14.87
2019-01-11T12:51:29.123Z,14.77
2019-01-11T12:54:00.713Z,14.97
2019-01-11T12:56:32.381Z,11.80
2019-01-11T12:59:03.994Z,11.80
2019-01-11T13:01:35.587Z,10.17
2019-01-11T13:04:07.399Z,9.90
2019-01-11T13:06:39.051Z,7.70
2019-01-11T13:09:10.865Z,8.47
2019-01-11T13:11:42.377Z,6.53
2019-01-11T13:14:13.967Z,5.60
2019-01-11T13:16:45.546Z,5.03
2019-01-11T13:19:17.047Z,4.33
2019-01-11T13:21:48.955Z,4.80
2019-01-11T13:24:20.390Z,4.10
2019-01-11T13:26:51.957Z,4.03
2019-01-11T13:29:23.371Z,4.87
2019-01-11T13:31:54.921Z,4.83
2019-01-11T13:34:26.682Z,4.60
2019-01-11T13:36:59.025Z,4.10
2019-01-11T13:39:30.788Z,4.60
2019-01-11T13:42:02.517Z,4.90
2019-01-11T13:44:33.985Z,4.80
2019-01-11T13:47:05.778Z,5.63
2019-01-11T13:49:37.326Z,4.80
2019-01-11T13:52:08.812Z,4.63
2019-01-11T13:54:40.501Z,4.17
2019-01-11T13:57:12.260Z,4.07
2019-01-11T13:59:43.544Z,4.43
2019-01-11T14:02:15.123Z,5.00
2019-01-11T14:04:46.676Z,3.90
2019-01-11T14:07:19.097Z,4.10
2019-01-11T14:09:51.158Z,4.50
2019-01-11T14:12:23.498Z,3.63
2019-01-11T14:14:55.113Z,4.43
2019-01-11T14:17:26.847Z,3.53
2019-01-11T14:19:58.360Z,5.27
2019-01-11T14:22:29.963Z,3.33
2019-01-11T14:25:01.594Z,3.87
2019-01-11T14:27:33.315Z,3.17
2019-01-11T14:30:07.348Z,3.30
2019-01-11T14:32:39.031Z,2.80
2019-01-11T14:35:10.571Z,4.13
2019-01-11T14:37:42.647Z,2.87
2019-01-11T14:40:15.310Z,2.67
2019-01-11T14:42:46.977Z,2.60
2019-01-11T14:45:18.869Z,2.47
2019-01-11T14:47:51.297Z,2.50
2019-01-11T14:50:22.836Z,2.30
2019-01-11T14:52:54.468Z,2.67
2019-01-11T14:55:26.016Z,2.17
2019-01-11T14:57:57.582Z,2.67
2019-01-11T15:00:29.196Z,2.60
2019-01-11T15:03:00.726Z,2.83
2019-01-11T15:05:32.430Z,2.70
2019-01-11T15:08:04.111Z,2.67
2019-01-11T15:10:35.734Z,2.93
2019-01-11T15:13:07.455Z,2.77
2019-01-11T15:15:38.998Z,3.03
2019-01-11T15:18:10.657Z,2.80
2019-01-11T15:20:42.419Z,2.90
2019-01-11T15:23:16.140Z,2.77
2019-01-11T15:25:47.760Z,2.90
2019-01-11T15:28:19.474Z,2.63
2019-01-11T15:30:51.169Z,2.83
2019-01-11T15:33:22.642Z,2.37
2019-01-11T15:35:55.316Z,2.67
2019-01-11T15:38:27.249Z,3.27
2019-01-11T15:41:00.444Z,2.53
2019-01-11T15:43:33.474Z,2.77
2019-01-11T15:46:07.047Z,2.40
2019-01-11T15:48:46.454Z,2.57
2019-01-11T15:51:20.304Z,2.70
2019-01-11T15:53:51.860Z,2.70
2019-01-11T15:56:24.997Z,2.73
2019-01-11T15:58:56.715Z,2.87
2019-01-11T16:01:28.545Z,2.93
2019-01-11T16:04:03.102Z,2.67
2019-01-11T16:06:35.986Z,2.90
2019-01-11T16:09:57.789Z,2.97
2019-01-11T16:12:47.176Z,3.00
2019-01-11T16:15:40.616Z,3.17
2019-01-11T16:18:16.785Z,2.97
2019-01-11T16:20:48.161Z,3.80
2019-01-11T16:23:19.766Z,6.17
2019-01-11T16:25:52.964Z,3.87
2019-01-11T16:28:24.514Z,3.87
2019-01-11T16:30:56.246Z,3.20
2019-01-11T16:33:27.963Z,3.93
2019-01-11T16:35:59.653Z,2.40
2019-01-11T16:38:31.390Z,3.20
2019-01-11T16:41:03.134Z,2.80
2019-01-11T16:43:36.185Z,2.93
2019-01-11T16:46:07.779Z,3.90
2019-01-11T16:48:39.235Z,2.63
2019-01-11T16:51:10.934Z,2.70
2019-01-11T16:53:42.495Z,2.70
2019-01-11T16:56:14.170Z,2.63
2019-01-11T16:58:45.740Z,3.20
2019-01-11T17:01:16.988Z,2.90
2019-01-11T17:03:48.299Z,2.63
2019-01-11T17:06:19.959Z,2.60
2019-01-11T17:08:51.387Z,2.10
2019-01-11T17:11:22.967Z,2.20
2019-01-11T17:13:54.668Z,1.97
2019-01-11T17:16:26.377Z,2.00
2019-01-11T17:18:58.066Z,3.40
2019-01-11T17:21:29.946Z,3.23
2019-01-11T17:24:01.322Z,3.33
2019-01-11T17:26:32.903Z,3.13
2019-01-11T17:29:04.399Z,3.50
2019-01-11T17:31:35.938Z,2.73
2019-01-11T17:34:07.898Z,3.57
2019-01-11T17:36:39.518Z,3.57
2019-01-11T17:39:11.204Z,3.20
2019-01-11T17:41:42.867Z,3.60
2019-01-11T17:44:14.495Z,3.20
2019-01-11T17:46:46.264Z,3.33
2019-01-11T17:49:17.899Z,3.10
2019-01-11T17:51:50.451Z,2.73
2019-01-11T17:54:25.226Z,2.90
2019-01-11T17:56:57.026Z,3.20
2019-01-11T17:59:28.656Z,2.90
2019-01-11T18:02:00.149Z,3.47
2019-01-11T18:04:31.755Z,2.80
2019-01-11T18:07:03.444Z,2.80
2019-01-11T18:09:35.096Z,2.00
2019-01-11T18:12:06.462Z,2.77
2019-01-11T18:14:38.214Z,3.60
2019-01-11T18:17:09.749Z,2.70
2019-01-11T18:19:41.193Z,2.77
2019-01-11T18:22:12.962Z,3.00
2019-01-11T18:24:44.560Z,3.30
2019-01-11T18:27:16.326Z,3.23
2019-01-11T18:29:47.934Z,3.23
2019-01-11T18:32:19.547Z,3.07
2019-01-11T18:34:52.533Z,3.60
2019-01-11T18:37:24.156Z,3.17
2019-01-11T18:39:57.783Z,2.70
2019-01-11T18:42:29.332Z,3.07
2019-01-11T18:45:01.002Z,3.00
2019-01-11T18:47:33.531Z,3.73
2019-01-11T18:50:06.521Z,2.73
2019-01-11T18:52:38.290Z,2.83
2019-01-11T18:55:10.181Z,3.17
2019-01-11T18:57:41.786Z,2.47
2019-01-11T19:00:20.575Z,2.77
2019-01-11T19:02:52.429Z,3.10
2019-01-11T19:05:24.162Z,2.57
2019-01-11T19:07:55.787Z,2.60
2019-01-11T19:10:27.279Z,2.77
2019-01-11T19:12:59.000Z,3.60
2019-01-11T19:15:31.024Z,3.33
2019-01-11T19:18:04.023Z,3.40
2019-01-11T19:20:35.638Z,2.70
2019-01-11T19:23:07.431Z,3.10
2019-01-11T19:25:41.853Z,3.00
2019-01-11T19:28:13.659Z,3.67
2019-01-11T19:30:45.217Z,2.77
2019-01-11T19:33:16.751Z,3.43
2019-01-11T19:35:49.120Z,2.57
2019-01-11T19:38:22.259Z,3.00
2019-01-11T19:40:53.900Z,3.00
2019-01-11T19:43:25.166Z,2.53
2019-01-11T19:45:56.496Z,2.80
2019-01-11T19:48:27.724Z,2.70
2019-01-11T19:50:59.038Z,2.83
2019-01-11T19:53:30.256Z,2.87
2019-01-11T19:56:01.948Z,2.73
2019-01-11T19:58:33.502Z,2.57
2019-01-11T20:01:05.632Z,2.43
2019-01-11T20:03:37.214Z,2.33
2019-01-11T20:06:08.753Z,2.20
2019-01-11T20:08:40.440Z,2.80
2019-01-11T20:11:12.160Z,2.67
2019-01-11T20:13:43.675Z,2.33
2019-01-11T20:16:15.358Z,2.80
2019-01-11T20:18:47.015Z,2.03
2019-01-11T20:21:18.814Z,2.07
2019-01-11T20:23:50.578Z,2.83
2019-01-11T20:26:22.327Z,2.13
2019-01-11T20:28:54.096Z,1.70
2019-01-11T20:31:25.767Z,2.07
2019-01-11T20:33:58.040Z,2.05
2019-01-11T20:36:33.530Z,2.30
2019-01-11T20:39:07.630Z,2.33
2019-01-11T20:41:39.729Z,2.20
2019-01-11T20:44:11.414Z,2.20
2019-01-11T20:46:43.034Z,2.03
2019-01-11T20:49:14.610Z,1.90
2019-01-11T20:51:46.247Z,1.60
2019-01-11T20:54:17.871Z,2.10
2019-01-11T20:56:49.450Z,1.70
2019-01-11T20:59:21.060Z,1.63
2019-01-11T21:01:52.680Z,2.33
2019-01-11T21:04:24.244Z,1.47
2019-01-11T21:06:55.972Z,1.83
2019-01-11T21:09:27.575Z,1.93
2019-01-11T21:11:59.036Z,1.90
2019-01-11T21:14:30.882Z,1.90
2019-01-11T21:17:02.450Z,2.00
2019-01-11T21:19:34.067Z,2.17
2019-01-11T21:22:05.869Z,1.73
2019-01-11T21:24:37.619Z,1.93
2019-01-11T21:27:09.238Z,1.90
2019-01-11T21:29:40.959Z,1.93
2019-01-11T21:32:13.568Z,2.27
2019-01-11T21:34:45.213Z,2.10
2019-01-11T21:37:17.847Z,2.07
2019-01-11T21:39:49.383Z,2.97
2019-01-11T21:42:21.062Z,2.60
2019-01-11T21:44:52.794Z,2.50
2019-01-11T21:47:24.354Z,1.80
2019-01-11T21:49:56.113Z,2.10
2019-01-11T21:52:27.673Z,1.93
2019-01-11T21:54:59.140Z,1.90
2019-01-11T21:57:31.881Z,1.73
2019-01-11T22:00:03.623Z,1.73
2019-01-11T22:02:35.440Z,2.07
2019-01-11T22:05:07.374Z,2.03
2019-01-11T22:07:38.925Z,1.80
2019-01-11T22:10:11.746Z,1.70
2019-01-11T22:12:43.430Z,2.10
2019-01-11T22:15:18.616Z,1.73
2019-01-11T22:17:51.438Z,1.80
2019-01-11T22:20:23.101Z,1.10
2019-01-11T22:22:55.388Z,1.50
2019-01-11T22:25:26.944Z,2.50
2019-01-11T22:27:58.572Z,1.77
2019-01-11T22:30:30.692Z,2.37
2019-01-11T22:33:02.443Z,1.90
2019-01-11T22:35:34.160Z,1.60
2019-01-11T22:38:06.361Z,1.70
2019-01-11T22:40:38.843Z,3.23
2019-01-11T22:43:10.513Z,2.00
2019-01-11T22:45:42.328Z,1.30
2019-01-11T22:48:13.872Z,2.10
2019-01-11T22:50:45.580Z,1.63
2019-01-11T22:53:17.351Z,1.83
2019-01-11T22:55:48.897Z,1.53
2019-01-11T22:58:20.653Z,2.27
2019-01-11T23:01:30.120Z,2.33
2019-01-11T23:04:01.695Z,2.03
2019-01-11T23:06:57.202Z,3.20
2019-01-11T23:09:39.187Z,1.87
2019-01-11T23:12:50.697Z,1.70
2019-01-11T23:15:26.784Z,1.60
2019-01-11T23:18:10.363Z,1.53
2019-01-11T23:20:41.895Z,1.47
2019-01-11T23:23:13.540Z,1.70
2019-01-11T23:25:45.064Z,1.50
2019-01-11T23:28:16.811Z,1.30
2019-01-11T23:30:48.361Z,1.70
2019-01-11T23:33:19.733Z,1.50
2019-01-11T23:35:51.382Z,1.60
2019-01-11T23:38:23.515Z,1.60
2019-01-11T23:40:55.100Z,1.37
2019-01-11T23:43:26.905Z,1.73
2019-01-11T23:45:58.429Z,1.60
2019-01-11T23:48:29.753Z,1.87
2019-01-11T23:51:01.031Z,1.67
2019-01-11T23:53:32.529Z,1.53
2019-01-11T23:56:03.822Z,2.10
2019-01-11T23:58:35.384Z,1.77
